createdAt,value
2019-04-27T00:00:06.313Z,1007.21
2019-04-27T00:01:10.537Z,1007.20
2019-04-27T00:02:06.376Z,1007.23
2019-04-27T00:03:06.350Z,1007.23
2019-04-27T00:04:06.340Z,1007.23
2019-04-27T00:05:06.356Z,1007.23
2019-04-27T00:06:08.442Z,1007.19
2019-04-27T00:07:06.390Z,1007.29
2019-04-27T00:08:06.378Z,1007.37
2019-04-27T00:09:07.568Z,1007.30
2019-04-27T00:10:06.510Z,1007.31
2019-04-27T00:11:08.659Z,1007.29
2019-04-27T00:12:06.414Z,1007.27
2019-04-27T00:13:06.573Z,1007.18
2019-04-27T00:14:06.438Z,1007.22
2019-04-27T00:15:06.449Z,1007.20
2019-04-27T00:16:09.850Z,1007.17
2019-04-27T00:17:06.465Z,1007.30
2019-04-27T00:18:09.446Z,1007.15
2019-04-27T00:19:06.622Z,1007.11
2019-04-27T00:20:06.474Z,1007.06
2019-04-27T00:21:06.572Z,1006.98
2019-04-27T00:22:06.478Z,1007.04
2019-04-27T00:23:06.483Z,1007.02
2019-04-27T00:24:06.764Z,1007.08
2019-04-27T00:25:06.560Z,1007.04
2019-04-27T00:26:06.519Z,1007.13
2019-04-27T00:27:06.806Z,1007.11
2019-04-27T00:28:06.843Z,1007.11
2019-04-27T00:29:06.548Z,1007.11
2019-04-27T00:30:06.550Z,1007.08
2019-04-27T00:31:06.554Z,1007.14
2019-04-27T00:32:06.535Z,1007.09
2019-04-27T00:33:06.570Z,1007.04
2019-04-27T00:34:06.609Z,1007.10
2019-04-27T00:35:06.571Z,1007.07
2019-04-27T00:36:06.585Z,1007.03
2019-04-27T00:37:06.590Z,1007.06
2019-04-27T00:38:06.618Z,1007.03
2019-04-27T00:39:06.685Z,1007.02
2019-04-27T00:40:06.775Z,1007.00
2019-04-27T00:41:06.640Z,1007.02
2019-04-27T00:42:06.630Z,1006.99
2019-04-27T00:43:06.638Z,1006.98
2019-04-27T00:44:06.635Z,1007.06
2019-04-27T00:45:06.672Z,1007.00
2019-04-27T00:46:06.731Z,1007.02
2019-04-27T00:47:06.702Z,1007.15
2019-04-27T00:48:06.764Z,1007.21
2019-04-27T00:49:06.681Z,1006.99
2019-04-27T00:50:06.679Z,1007.01
2019-04-27T00:51:06.904Z,1006.96
2019-04-27T00:52:06.694Z,1006.93
2019-04-27T00:53:06.718Z,1006.89
2019-04-27T00:54:06.904Z,1006.88
2019-04-27T00:55:06.793Z,1006.86
2019-04-27T00:56:06.743Z,1006.89
2019-04-27T00:57:06.769Z,1006.94
2019-04-27T00:58:06.747Z,1006.99
2019-04-27T00:59:06.858Z,1006.93
2019-04-27T01:00:06.739Z,1006.95
2019-04-27T01:01:06.762Z,1006.87
2019-04-27T01:02:06.763Z,1006.94
2019-04-27T01:03:06.760Z,1006.85
2019-04-27T01:04:06.788Z,1006.94
2019-04-27T01:05:06.790Z,1006.85
2019-04-27T01:06:06.825Z,1006.84
2019-04-27T01:07:06.793Z,1006.82
2019-04-27T01:08:06.804Z,1006.91
2019-04-27T01:09:06.875Z,1006.91
2019-04-27T01:10:06.818Z,1006.93
2019-04-27T01:11:06.829Z,1006.99
2019-04-27T01:12:06.842Z,1006.97
2019-04-27T01:13:07.037Z,1007.02
2019-04-27T01:14:06.833Z,1007.02
2019-04-27T01:15:06.839Z,1007.05
2019-04-27T01:16:08.512Z,1007.09
2019-04-27T01:17:08.493Z,1007.05
2019-04-27T01:18:13.313Z,1007.06
2019-04-27T01:19:08.447Z,1007.10
2019-04-27T01:20:08.592Z,1007.05
2019-04-27T01:21:06.889Z,1007.06
2019-04-27T01:22:08.645Z,1007.13
2019-04-27T01:23:06.903Z,1007.16
2019-04-27T01:24:08.891Z,1007.19
2019-04-27T01:25:08.677Z,1007.18
2019-04-27T01:26:06.934Z,1007.25
2019-04-27T01:27:08.701Z,1007.42
2019-04-27T01:28:06.934Z,1007.35
2019-04-27T01:29:06.938Z,1007.37
2019-04-27T01:30:08.703Z,1007.42
2019-04-27T01:31:06.951Z,1007.40
2019-04-27T01:32:08.616Z,1007.39
2019-04-27T01:33:06.975Z,1007.40
2019-04-27T01:34:06.974Z,1007.42
2019-04-27T01:35:08.538Z,1007.42
2019-04-27T01:36:07.091Z,1007.43
2019-04-27T01:37:07.047Z,1007.45
2019-04-27T01:38:07.005Z,1007.44
2019-04-27T01:39:08.471Z,1007.51
2019-04-27T01:40:07.022Z,1007.50
2019-04-27T01:41:08.666Z,1007.48
2019-04-27T01:42:07.023Z,1007.49
2019-04-27T01:43:09.023Z,1007.49
2019-04-27T01:44:07.087Z,1007.53
2019-04-27T01:45:08.555Z,1007.51
2019-04-27T01:46:07.068Z,1007.52
2019-04-27T01:47:08.300Z,1007.56
2019-04-27T01:48:07.071Z,1007.59
2019-04-27T01:49:07.083Z,1007.63
2019-04-27T01:50:08.643Z,1007.60
2019-04-27T01:51:07.092Z,1007.62
2019-04-27T01:52:07.103Z,1007.60
2019-04-27T01:53:08.853Z,1007.57
2019-04-27T01:54:07.112Z,1007.55
2019-04-27T01:55:08.626Z,1007.55
2019-04-27T01:56:09.075Z,1007.52
2019-04-27T01:57:08.012Z,1007.59
2019-04-27T01:58:10.592Z,1007.51
2019-04-27T01:59:08.658Z,1007.56
2019-04-27T02:00:08.780Z,1007.58
2019-04-27T02:01:07.207Z,1007.62
2019-04-27T02:02:08.791Z,1007.71
2019-04-27T02:03:08.557Z,1007.74
2019-04-27T02:04:07.186Z,1007.78
2019-04-27T02:05:08.931Z,1007.81
2019-04-27T02:06:09.119Z,1007.86
2019-04-27T02:07:08.995Z,1007.88
2019-04-27T02:08:07.211Z,1007.87
2019-04-27T02:09:08.486Z,1007.89
2019-04-27T02:10:08.856Z,1007.87
2019-04-27T02:11:07.260Z,1007.90
2019-04-27T02:12:07.263Z,1007.93
2019-04-27T02:13:08.783Z,1007.88
2019-04-27T02:14:07.322Z,1007.85
2019-04-27T02:15:08.820Z,1007.81
2019-04-27T02:16:08.894Z,1007.84
2019-04-27T02:17:07.433Z,1007.86
2019-04-27T02:18:09.336Z,1007.81
2019-04-27T02:19:09.057Z,1007.79
2019-04-27T02:20:07.351Z,1007.73
2019-04-27T02:21:09.027Z,1007.64
2019-04-27T02:22:08.590Z,1007.67
2019-04-27T02:23:08.968Z,1007.68
2019-04-27T02:24:07.480Z,1007.69
2019-04-27T02:25:08.940Z,1007.66
2019-04-27T02:26:08.604Z,1007.66
2019-04-27T02:27:08.972Z,1007.63
2019-04-27T02:28:07.394Z,1007.63
2019-04-27T02:29:08.786Z,1007.66
2019-04-27T02:30:08.278Z,1007.67
2019-04-27T02:31:09.708Z,1007.69
2019-04-27T02:32:10.252Z,1007.63
2019-04-27T02:33:12.189Z,1007.66
2019-04-27T02:34:09.547Z,1007.65
2019-04-27T02:35:09.312Z,1007.67
2019-04-27T02:36:12.102Z,1007.64
2019-04-27T02:37:10.003Z,1007.66
2019-04-27T02:38:09.966Z,1007.68
2019-04-27T02:39:09.495Z,1007.67
2019-04-27T02:40:09.555Z,1007.69
2019-04-27T02:41:09.794Z,1007.63
2019-04-27T02:42:09.436Z,1007.65
2019-04-27T02:43:07.492Z,1007.58
2019-04-27T02:44:09.551Z,1007.59
2019-04-27T02:45:09.646Z,1007.49
2019-04-27T02:46:09.581Z,1007.49
2019-04-27T02:47:09.981Z,1007.52
2019-04-27T02:48:09.866Z,1007.49
2019-04-27T02:49:10.298Z,1007.59
2019-04-27T02:50:07.539Z,1007.56
2019-04-27T02:51:09.909Z,1007.63
2019-04-27T02:52:09.401Z,1007.58
2019-04-27T02:53:07.590Z,1007.59
2019-04-27T02:54:12.035Z,1007.62
2019-04-27T02:55:09.614Z,1007.64
2019-04-27T02:56:10.049Z,1007.65
2019-04-27T02:57:10.079Z,1007.72
2019-04-27T02:58:10.018Z,1007.73
2019-04-27T02:59:09.536Z,1007.69
2019-04-27T03:00:07.643Z,1007.65
2019-04-27T03:01:09.849Z,1007.60
2019-04-27T03:02:10.504Z,1007.65
2019-04-27T03:03:09.991Z,1007.61
2019-04-27T03:04:09.827Z,1007.60
2019-04-27T03:05:07.641Z,1007.61
2019-04-27T03:06:09.706Z,1007.60
2019-04-27T03:07:07.886Z,1007.62
2019-04-27T03:08:10.146Z,1007.69
2019-04-27T03:09:10.210Z,1007.79
2019-04-27T03:10:09.909Z,1007.76
2019-04-27T03:11:09.760Z,1007.86
2019-04-27T03:12:10.124Z,1007.89
2019-04-27T03:13:07.702Z,1007.91
2019-04-27T03:14:15.141Z,1007.93
2019-04-27T03:15:10.242Z,1007.91
2019-04-27T03:16:07.732Z,1007.91
2019-04-27T03:17:09.783Z,1007.94
2019-04-27T03:18:09.902Z,1007.97
2019-04-27T03:19:14.734Z,1007.95
2019-04-27T03:20:10.265Z,1007.97
2019-04-27T03:21:12.707Z,1008.00
2019-04-27T03:22:09.719Z,1007.99
2019-04-27T03:23:09.685Z,1007.96
2019-04-27T03:24:09.830Z,1007.94
2019-04-27T03:25:09.858Z,1007.96
2019-04-27T03:26:10.562Z,1007.93
2019-04-27T03:27:09.761Z,1008.00
2019-04-27T03:28:14.498Z,1007.96
2019-04-27T03:29:09.780Z,1008.01
2019-04-27T03:30:11.691Z,1008.00
2019-04-27T03:31:12.640Z,1007.99
2019-04-27T03:32:12.393Z,1007.99
2019-04-27T03:33:11.336Z,1008.04
2019-04-27T03:34:15.658Z,1008.07
2019-04-27T03:35:12.305Z,1008.08
2019-04-27T03:36:12.509Z,1008.05
2019-04-27T03:37:10.333Z,1008.08
2019-04-27T03:38:10.418Z,1008.06
2019-04-27T03:39:09.980Z,1008.10
2019-04-27T03:40:10.099Z,1008.11
2019-04-27T03:41:09.553Z,1008.07
2019-04-27T03:42:10.166Z,1008.06
2019-04-27T03:43:09.389Z,1008.02
2019-04-27T03:44:09.404Z,1008.06
2019-04-27T03:45:10.462Z,1008.03
2019-04-27T03:46:10.125Z,1008.02
2019-04-27T03:47:12.289Z,1008.01
2019-04-27T03:48:10.179Z,1008.01
2019-04-27T03:49:09.779Z,1008.03
2019-04-27T03:50:10.335Z,1007.94
2019-04-27T03:51:10.011Z,1008.00
2019-04-27T03:52:09.669Z,1007.96
2019-04-27T03:53:10.148Z,1007.97
2019-04-27T03:54:10.403Z,1008.01
2019-04-27T03:55:10.154Z,1008.02
2019-04-27T03:56:10.161Z,1007.99
2019-04-27T03:57:09.941Z,1008.00
2019-04-27T03:58:11.793Z,1008.01
2019-04-27T03:59:10.168Z,1008.01
2019-04-27T04:00:10.108Z,1008.05
2019-04-27T04:01:10.279Z,1008.03
2019-04-27T04:02:10.152Z,1008.01
2019-04-27T04:03:10.496Z,1007.99
2019-04-27T04:04:10.348Z,1008.00
2019-04-27T04:05:09.854Z,1007.99
2019-04-27T04:06:10.522Z,1007.89
2019-04-27T04:07:09.567Z,1007.88
2019-04-27T04:08:10.441Z,1007.86
2019-04-27T04:09:10.200Z,1007.84
2019-04-27T04:10:10.375Z,1007.80
2019-04-27T04:11:10.293Z,1007.80
2019-04-27T04:12:09.552Z,1007.80
2019-04-27T04:13:10.515Z,1007.84
2019-04-27T04:14:10.139Z,1007.84
2019-04-27T04:15:09.971Z,1007.79
2019-04-27T04:16:10.703Z,1007.80
2019-04-27T04:17:09.847Z,1007.77
2019-04-27T04:18:09.826Z,1007.86
2019-04-27T04:19:09.756Z,1007.86
2019-04-27T04:20:10.188Z,1007.92
2019-04-27T04:21:09.550Z,1008.01
2019-04-27T04:22:10.228Z,1008.03
2019-04-27T04:23:10.676Z,1007.99
2019-04-27T04:24:08.973Z,1008.05
2019-04-27T04:25:10.466Z,1008.06
2019-04-27T04:26:09.837Z,1008.07
2019-04-27T04:27:09.911Z,1008.01
2019-04-27T04:28:09.401Z,1008.00
2019-04-27T04:29:10.273Z,1008.01
2019-04-27T04:30:11.802Z,1008.02
2019-04-27T04:31:12.851Z,1007.99
2019-04-27T04:32:10.410Z,1008.00
2019-04-27T04:33:10.140Z,1008.01
2019-04-27T04:34:09.709Z,1008.01
2019-04-27T04:35:10.314Z,1007.96
2019-04-27T04:36:10.076Z,1007.96
2019-04-27T04:37:09.276Z,1007.96
2019-04-27T04:38:10.332Z,1007.98
2019-04-27T04:39:11.964Z,1007.94
2019-04-27T04:40:09.812Z,1008.02
2019-04-27T04:41:09.562Z,1008.02
2019-04-27T04:42:10.165Z,1008.02
2019-04-27T04:43:10.780Z,1007.99
2019-04-27T04:44:12.192Z,1008.02
2019-04-27T04:45:10.500Z,1008.00
2019-04-27T04:46:12.278Z,1008.03
2019-04-27T04:47:10.378Z,1008.06
2019-04-27T04:48:09.879Z,1008.08
2019-04-27T04:49:09.457Z,1008.15
2019-04-27T04:50:14.422Z,1008.12
2019-04-27T04:51:10.058Z,1008.11
2019-04-27T04:52:09.665Z,1008.14
2019-04-27T04:53:12.233Z,1008.14
2019-04-27T04:54:09.524Z,1008.13
2019-04-27T04:55:10.192Z,1008.11
2019-04-27T04:56:08.567Z,1008.07
2019-04-27T04:57:09.292Z,1008.12
2019-04-27T04:58:09.349Z,1008.11
2019-04-27T04:59:10.098Z,1008.13
2019-04-27T05:00:09.874Z,1008.19
2019-04-27T05:01:09.904Z,1008.19
2019-04-27T05:02:10.528Z,1008.15
2019-04-27T05:03:09.386Z,1008.21
2019-04-27T05:04:09.102Z,1008.20
2019-04-27T05:05:09.372Z,1008.19
2019-04-27T05:06:08.886Z,1008.20
2019-04-27T05:07:09.212Z,1008.22
2019-04-27T05:08:09.095Z,1008.22
2019-04-27T05:09:09.289Z,1008.15
2019-04-27T05:10:09.176Z,1008.20
2019-04-27T05:11:09.680Z,1008.16
2019-04-27T05:12:08.948Z,1008.14
2019-04-27T05:13:09.304Z,1008.20
2019-04-27T05:14:09.852Z,1008.24
2019-04-27T05:15:09.114Z,1008.23
2019-04-27T05:16:08.992Z,1008.29
2019-04-27T05:17:09.494Z,1008.20
2019-04-27T05:18:09.073Z,1008.21
2019-04-27T05:19:11.127Z,1008.17
2019-04-27T05:20:12.617Z,1008.19
2019-04-27T05:21:09.035Z,1008.18
2019-04-27T05:22:09.368Z,1008.16
2019-04-27T05:23:09.600Z,1008.15
2019-04-27T05:24:09.398Z,1008.15
2019-04-27T05:25:09.303Z,1008.24
2019-04-27T05:26:09.086Z,1008.18
2019-04-27T05:27:09.222Z,1008.22
2019-04-27T05:28:09.728Z,1008.19
2019-04-27T05:29:09.221Z,1008.24
2019-04-27T05:30:09.339Z,1008.21
2019-04-27T05:31:09.128Z,1008.25
2019-04-27T05:32:09.210Z,1008.21
2019-04-27T05:33:09.062Z,1008.25
2019-04-27T05:34:09.538Z,1008.26
2019-04-27T05:35:08.884Z,1008.30
2019-04-27T05:36:09.401Z,1008.28
2019-04-27T05:37:09.031Z,1008.31
2019-04-27T05:38:13.134Z,1008.33
2019-04-27T05:39:10.036Z,1008.38
2019-04-27T05:40:09.201Z,1008.37
2019-04-27T05:41:08.781Z,1008.37
2019-04-27T05:42:12.547Z,1008.36
2019-04-27T05:43:09.191Z,1008.40
2019-04-27T05:44:12.741Z,1008.37
2019-04-27T05:45:09.290Z,1008.40
2019-04-27T05:46:10.942Z,1008.38
2019-04-27T05:47:09.983Z,1008.34
2019-04-27T05:48:09.423Z,1008.38
2019-04-27T05:49:09.552Z,1008.36
2019-04-27T05:50:09.109Z,1008.36
2019-04-27T05:51:09.204Z,1008.39
2019-04-27T05:52:14.385Z,1008.40
2019-04-27T05:53:09.574Z,1008.41
2019-04-27T05:54:09.144Z,1008.39
2019-04-27T05:55:10.402Z,1008.40
2019-04-27T05:56:09.405Z,1008.38
2019-04-27T05:57:09.474Z,1008.45
2019-04-27T05:58:09.342Z,1008.43
2019-04-27T05:59:09.264Z,1008.49
2019-04-27T06:00:09.272Z,1008.41
2019-04-27T06:01:10.877Z,1008.42
2019-04-27T06:02:09.468Z,1008.47
2019-04-27T06:03:09.125Z,1008.43
2019-04-27T06:04:09.189Z,1008.41
2019-04-27T06:05:08.965Z,1008.48
2019-04-27T06:06:09.699Z,1008.44
2019-04-27T06:07:11.394Z,1008.43
2019-04-27T06:08:09.001Z,1008.43
2019-04-27T06:09:09.488Z,1008.46
2019-04-27T06:10:09.563Z,1008.47
2019-04-27T06:11:09.381Z,1008.48
2019-04-27T06:12:09.071Z,1008.45
2019-04-27T06:13:10.630Z,1008.45
2019-04-27T06:14:09.672Z,1008.47
2019-04-27T06:15:09.757Z,1008.45
2019-04-27T06:16:09.547Z,1008.50
2019-04-27T06:17:09.519Z,1008.46
2019-04-27T06:18:10.052Z,1008.46
2019-04-27T06:19:09.610Z,1008.46
2019-04-27T06:20:11.314Z,1008.40
2019-04-27T06:21:09.784Z,1008.41
2019-04-27T06:22:09.651Z,1008.46
2019-04-27T06:23:09.200Z,1008.48
2019-04-27T06:24:09.388Z,1008.51
2019-04-27T06:25:11.863Z,1008.46
2019-04-27T06:26:11.684Z,1008.52
2019-04-27T06:27:09.486Z,1008.50
2019-04-27T06:28:09.293Z,1008.47
2019-04-27T06:29:09.569Z,1008.45
2019-04-27T06:30:09.379Z,1008.46
2019-04-27T06:31:09.176Z,1008.46
2019-04-27T06:32:10.895Z,1008.43
2019-04-27T06:33:09.456Z,1008.46
2019-04-27T06:34:09.821Z,1008.54
2019-04-27T06:35:12.238Z,1008.52
2019-04-27T06:36:10.040Z,1008.53
2019-04-27T06:37:09.618Z,1008.52
2019-04-27T06:38:11.408Z,1008.52
2019-04-27T06:39:09.749Z,1008.57
2019-04-27T06:40:09.794Z,1008.56
2019-04-27T06:41:09.987Z,1008.57
2019-04-27T06:42:16.679Z,1008.58
2019-04-27T06:43:09.339Z,1008.58
2019-04-27T06:44:11.302Z,1008.61
2019-04-27T06:45:09.899Z,1008.58
2019-04-27T06:46:09.366Z,1008.65
2019-04-27T06:47:09.318Z,1008.63
2019-04-27T06:48:09.690Z,1008.65
2019-04-27T06:49:10.956Z,1008.68
2019-04-27T06:50:09.386Z,1008.66
2019-04-27T06:51:09.766Z,1008.60
2019-04-27T06:52:09.396Z,1008.60
2019-04-27T06:53:09.418Z,1008.63
2019-04-27T06:54:09.438Z,1008.64
2019-04-27T06:55:09.520Z,1008.65
2019-04-27T06:56:09.599Z,1008.65
2019-04-27T06:57:09.464Z,1008.67
2019-04-27T06:58:09.446Z,1008.70
2019-04-27T06:59:09.459Z,1008.66
2019-04-27T07:00:09.506Z,1008.69
2019-04-27T07:01:11.087Z,1008.63
2019-04-27T07:02:09.528Z,1008.65
2019-04-27T07:03:10.679Z,1008.67
2019-04-27T07:04:10.906Z,1008.66
2019-04-27T07:05:09.562Z,1008.65
2019-04-27T07:06:09.500Z,1008.67
2019-04-27T07:07:09.825Z,1008.65
2019-04-27T07:08:09.564Z,1008.63
2019-04-27T07:09:09.778Z,1008.66
2019-04-27T07:10:09.553Z,1008.67
2019-04-27T07:11:11.499Z,1008.70
2019-04-27T07:12:09.568Z,1008.77
2019-04-27T07:13:09.752Z,1008.81
2019-04-27T07:14:11.570Z,1008.85
2019-04-27T07:15:09.596Z,1008.82
2019-04-27T07:16:09.703Z,1008.82
2019-04-27T07:17:09.618Z,1008.80
2019-04-27T07:18:09.759Z,1008.75
2019-04-27T07:19:09.679Z,1008.76
2019-04-27T07:20:09.641Z,1008.78
2019-04-27T07:21:16.954Z,1008.77
2019-04-27T07:22:11.443Z,1008.73
2019-04-27T07:23:09.689Z,1008.72
2019-04-27T07:24:09.708Z,1008.73
2019-04-27T07:25:09.701Z,1008.70
2019-04-27T07:26:09.742Z,1008.71
2019-04-27T07:27:09.717Z,1008.70
2019-04-27T07:28:09.744Z,1008.74
2019-04-27T07:29:09.858Z,1008.75
2019-04-27T07:30:11.803Z,1008.70
2019-04-27T07:31:09.769Z,1008.73
2019-04-27T07:32:09.783Z,1008.78
2019-04-27T07:33:09.764Z,1008.72
2019-04-27T07:34:09.843Z,1008.73
2019-04-27T07:35:09.965Z,1008.77
2019-04-27T07:36:09.814Z,1008.77
2019-04-27T07:37:11.185Z,1008.77
2019-04-27T07:38:10.012Z,1008.76
2019-04-27T07:39:11.577Z,1008.79
2019-04-27T07:40:09.924Z,1008.81
2019-04-27T07:41:09.932Z,1008.79
2019-04-27T07:42:09.872Z,1008.79
2019-04-27T07:43:09.894Z,1008.78
2019-04-27T07:44:10.211Z,1008.81
2019-04-27T07:45:11.315Z,1008.80
2019-04-27T07:46:10.013Z,1008.81
2019-04-27T07:47:09.974Z,1008.82
2019-04-27T07:48:09.960Z,1008.78
2019-04-27T07:49:09.934Z,1008.83
2019-04-27T07:50:09.951Z,1008.79
2019-04-27T07:51:09.983Z,1008.77
2019-04-27T07:52:10.010Z,1008.79
2019-04-27T07:53:09.978Z,1008.72
2019-04-27T07:54:09.989Z,1008.73
2019-04-27T07:55:10.039Z,1008.76
2019-04-27T07:56:10.818Z,1008.74
2019-04-27T07:57:10.034Z,1008.66
2019-04-27T07:58:10.082Z,1008.73
2019-04-27T07:59:10.072Z,1008.69
2019-04-27T08:00:10.053Z,1008.73
2019-04-27T08:01:10.094Z,1008.71
2019-04-27T08:02:11.129Z,1008.70
2019-04-27T08:03:10.151Z,1008.76
2019-04-27T08:04:10.096Z,1008.74
2019-04-27T08:05:10.096Z,1008.74
2019-04-27T08:06:10.850Z,1008.75
2019-04-27T08:07:10.127Z,1008.78
2019-04-27T08:08:10.218Z,1008.76
2019-04-27T08:09:10.193Z,1008.74
2019-04-27T08:10:10.166Z,1008.74
2019-04-27T08:11:11.346Z,1008.72
2019-04-27T08:12:10.918Z,1008.74
2019-04-27T08:13:10.206Z,1008.71
2019-04-27T08:14:10.238Z,1008.71
2019-04-27T08:15:10.246Z,1008.70
2019-04-27T08:16:10.215Z,1008.69
2019-04-27T08:17:10.236Z,1008.73
2019-04-27T08:18:11.237Z,1008.70
2019-04-27T08:19:10.334Z,1008.70
2019-04-27T08:20:10.284Z,1008.70
2019-04-27T08:21:10.285Z,1008.73
2019-04-27T08:22:10.299Z,1008.74
2019-04-27T08:23:10.308Z,1008.72
2019-04-27T08:24:11.217Z,1008.72
2019-04-27T08:25:10.421Z,1008.71
2019-04-27T08:26:10.327Z,1008.68
2019-04-27T08:27:10.381Z,1008.67
2019-04-27T08:28:10.525Z,1008.65
2019-04-27T08:29:10.363Z,1008.61
2019-04-27T08:30:10.415Z,1008.62
2019-04-27T08:31:10.430Z,1008.59
2019-04-27T08:32:10.449Z,1008.57
2019-04-27T08:33:10.399Z,1008.56
2019-04-27T08:34:10.440Z,1008.60
2019-04-27T08:35:10.447Z,1008.54
2019-04-27T08:36:10.475Z,1008.53
2019-04-27T08:37:10.477Z,1008.53
2019-04-27T08:38:10.503Z,1008.55
2019-04-27T08:39:10.477Z,1008.52
2019-04-27T08:40:10.546Z,1008.56
2019-04-27T08:41:10.555Z,1008.57
2019-04-27T08:42:10.535Z,1008.57
2019-04-27T08:43:10.548Z,1008.57
2019-04-27T08:44:10.562Z,1008.58
2019-04-27T08:45:10.558Z,1008.61
2019-04-27T08:46:10.924Z,1008.58
2019-04-27T08:47:10.719Z,1008.64
2019-04-27T08:48:10.820Z,1008.66
2019-04-27T08:49:10.795Z,1008.65
2019-04-27T08:50:11.181Z,1008.70
2019-04-27T08:51:12.888Z,1008.68
2019-04-27T08:52:11.090Z,1008.63
2019-04-27T08:53:11.141Z,1008.66
2019-04-27T08:54:10.944Z,1008.65
2019-04-27T08:55:10.734Z,1008.64
2019-04-27T08:56:11.090Z,1008.64
2019-04-27T08:57:11.615Z,1008.57
2019-04-27T08:58:10.853Z,1008.60
2019-04-27T08:59:10.896Z,1008.50
2019-04-27T09:00:10.925Z,1008.55
2019-04-27T09:01:10.811Z,1008.55
2019-04-27T09:02:10.873Z,1008.57
2019-04-27T09:03:11.640Z,1008.57
2019-04-27T09:04:11.364Z,1008.61
2019-04-27T09:05:10.876Z,1008.64
2019-04-27T09:06:10.953Z,1008.62
2019-04-27T09:07:11.130Z,1008.64
2019-04-27T09:08:10.817Z,1008.61
2019-04-27T09:09:10.883Z,1008.63
2019-04-27T09:10:11.032Z,1008.60
2019-04-27T09:11:10.867Z,1008.59
2019-04-27T09:12:10.865Z,1008.56
2019-04-27T09:13:10.868Z,1008.55
2019-04-27T09:14:10.896Z,1008.60
2019-04-27T09:15:10.884Z,1008.55
2019-04-27T09:16:11.164Z,1008.59
2019-04-27T09:17:10.993Z,1008.59
2019-04-27T09:18:10.914Z,1008.55
2019-04-27T09:19:10.994Z,1008.66
2019-04-27T09:20:11.072Z,1008.59
2019-04-27T09:21:10.955Z,1008.58
2019-04-27T09:22:16.074Z,1008.55
2019-04-27T09:23:10.982Z,1008.56
2019-04-27T09:24:11.011Z,1008.60
2019-04-27T09:25:11.025Z,1008.58
2019-04-27T09:26:11.201Z,1008.62
2019-04-27T09:27:11.035Z,1008.58
2019-04-27T09:28:11.039Z,1008.64
2019-04-27T09:29:11.051Z,1008.61
2019-04-27T09:30:11.112Z,1008.63
2019-04-27T09:31:11.107Z,1008.62
2019-04-27T09:32:11.246Z,1008.59
2019-04-27T09:33:11.192Z,1008.56
2019-04-27T09:34:12.669Z,1008.63
2019-04-27T09:35:11.152Z,1008.62
2019-04-27T09:36:11.138Z,1008.65
2019-04-27T09:37:11.166Z,1008.67
2019-04-27T09:38:11.190Z,1008.65
2019-04-27T09:39:11.187Z,1008.64
2019-04-27T09:40:11.234Z,1008.65
2019-04-27T09:41:11.330Z,1008.67
2019-04-27T09:42:11.258Z,1008.67
2019-04-27T09:43:11.236Z,1008.61
2019-04-27T09:44:11.233Z,1008.62
2019-04-27T09:45:11.304Z,1008.62
2019-04-27T09:46:11.259Z,1008.59
2019-04-27T09:47:11.280Z,1008.59
2019-04-27T09:48:11.275Z,1008.55
2019-04-27T09:49:12.192Z,1008.57
2019-04-27T09:50:11.318Z,1008.57
2019-04-27T09:51:11.660Z,1008.60
2019-04-27T09:52:23.400Z,1008.60
2019-04-27T09:53:11.394Z,1008.59
2019-04-27T09:54:11.434Z,1008.60
2019-04-27T09:55:11.593Z,1008.59
2019-04-27T09:56:11.388Z,1008.57
2019-04-27T09:57:11.484Z,1008.56
2019-04-27T09:58:11.540Z,1008.56
2019-04-27T09:59:11.419Z,1008.53
2019-04-27T10:00:11.459Z,1008.52
2019-04-27T10:01:11.446Z,1008.55
2019-04-27T10:02:11.487Z,1008.55
2019-04-27T10:03:11.877Z,1008.56
2019-04-27T10:04:11.515Z,1008.57
2019-04-27T10:05:11.503Z,1008.50
2019-04-27T10:06:11.499Z,1008.52
2019-04-27T10:07:11.553Z,1008.51
2019-04-27T10:08:11.534Z,1008.52
2019-04-27T10:09:11.548Z,1008.57
2019-04-27T10:10:11.581Z,1008.55
2019-04-27T10:11:11.618Z,1008.56
2019-04-27T10:12:11.602Z,1008.55
2019-04-27T10:13:11.590Z,1008.51
2019-04-27T10:14:11.652Z,1008.51
2019-04-27T10:15:11.662Z,1008.53
2019-04-27T10:16:11.626Z,1008.50
2019-04-27T10:17:11.638Z,1008.51
2019-04-27T10:18:11.671Z,1008.49
2019-04-27T10:19:11.893Z,1008.47
2019-04-27T10:20:11.691Z,1008.46
2019-04-27T10:21:11.866Z,1008.50
2019-04-27T10:22:11.788Z,1008.55
2019-04-27T10:23:11.760Z,1008.49
2019-04-27T10:24:11.745Z,1008.47
2019-04-27T10:25:11.740Z,1008.52
2019-04-27T10:26:11.776Z,1008.48
2019-04-27T10:27:11.782Z,1008.42
2019-04-27T10:28:11.868Z,1008.49
2019-04-27T10:29:11.868Z,1008.51
2019-04-27T10:30:11.815Z,1008.47
2019-04-27T10:31:11.902Z,1008.49
2019-04-27T10:32:11.841Z,1008.47
2019-04-27T10:33:11.882Z,1008.47
2019-04-27T10:34:11.912Z,1008.42
2019-04-27T10:35:11.885Z,1008.44
2019-04-27T10:36:11.892Z,1008.42
2019-04-27T10:37:11.941Z,1008.45
2019-04-27T10:38:11.918Z,1008.43
2019-04-27T10:39:13.379Z,1008.40
2019-04-27T10:40:11.954Z,1008.39
2019-04-27T10:41:12.026Z,1008.37
2019-04-27T10:42:11.967Z,1008.36
2019-04-27T10:43:11.975Z,1008.37
2019-04-27T10:44:12.019Z,1008.39
2019-04-27T10:45:12.060Z,1008.41
2019-04-27T10:46:12.011Z,1008.48
2019-04-27T10:47:12.044Z,1008.47
2019-04-27T10:48:12.079Z,1008.46
2019-04-27T10:49:12.132Z,1008.42
2019-04-27T10:50:12.083Z,1008.42
2019-04-27T10:51:12.095Z,1008.40
2019-04-27T10:52:12.159Z,1008.37
2019-04-27T10:53:12.191Z,1008.41
2019-04-27T10:54:12.196Z,1008.40
2019-04-27T10:55:12.137Z,1008.41
2019-04-27T10:56:12.180Z,1008.39
2019-04-27T10:57:12.199Z,1008.37
2019-04-27T10:58:12.199Z,1008.35
2019-04-27T10:59:16.455Z,1008.37
2019-04-27T11:00:12.200Z,1008.39
2019-04-27T11:01:12.373Z,1008.35
2019-04-27T11:02:12.219Z,1008.35
2019-04-27T11:03:12.271Z,1008.33
2019-04-27T11:04:12.257Z,1008.36
2019-04-27T11:05:12.274Z,1008.31
2019-04-27T11:06:12.307Z,1008.27
2019-04-27T11:07:12.312Z,1008.30
2019-04-27T11:08:12.368Z,1008.34
2019-04-27T11:09:12.322Z,1008.35
2019-04-27T11:10:12.338Z,1008.40
2019-04-27T11:11:12.497Z,1008.35
2019-04-27T11:12:12.349Z,1008.40
2019-04-27T11:13:12.445Z,1008.36
2019-04-27T11:14:12.662Z,1008.37
2019-04-27T11:15:12.479Z,1008.34
2019-04-27T11:16:12.404Z,1008.34
2019-04-27T11:17:12.449Z,1008.36
2019-04-27T11:18:12.472Z,1008.34
2019-04-27T11:19:12.461Z,1008.39
2019-04-27T11:20:12.465Z,1008.33
2019-04-27T11:21:12.495Z,1008.31
2019-04-27T11:22:12.515Z,1008.32
2019-04-27T11:23:12.559Z,1008.30
2019-04-27T11:24:12.531Z,1008.29
2019-04-27T11:25:12.531Z,1008.24
2019-04-27T11:26:12.558Z,1008.20
2019-04-27T11:27:14.050Z,1008.19
2019-04-27T11:28:13.021Z,1008.18
2019-04-27T11:29:12.583Z,1008.17
2019-04-27T11:30:12.595Z,1008.15
2019-04-27T11:31:12.606Z,1008.13
2019-04-27T11:32:12.871Z,1008.15
2019-04-27T11:33:12.809Z,1008.18
2019-04-27T11:34:12.662Z,1008.18
2019-04-27T11:35:12.664Z,1008.18
2019-04-27T11:36:14.950Z,1008.19
2019-04-27T11:37:12.689Z,1008.21
2019-04-27T11:38:12.730Z,1008.18
2019-04-27T11:39:12.715Z,1008.12
2019-04-27T11:40:12.770Z,1008.14
2019-04-27T11:41:12.772Z,1008.10
2019-04-27T11:42:12.760Z,1008.13
2019-04-27T11:43:12.868Z,1008.11
2019-04-27T11:44:12.842Z,1008.11
2019-04-27T11:45:12.819Z,1008.16
2019-04-27T11:46:12.874Z,1008.10
2019-04-27T11:47:12.837Z,1008.15
2019-04-27T11:48:12.858Z,1008.15
2019-04-27T11:49:12.848Z,1008.11
2019-04-27T11:50:12.880Z,1008.06
2019-04-27T11:51:12.885Z,1008.15
2019-04-27T11:52:13.234Z,1008.11
2019-04-27T11:53:22.103Z,1008.07
2019-04-27T11:54:12.924Z,1008.08
2019-04-27T11:55:12.954Z,1008.10
2019-04-27T11:56:12.951Z,1008.04
2019-04-27T11:57:12.971Z,1008.07
2019-04-27T11:58:12.975Z,1008.07
2019-04-27T11:59:12.980Z,1007.98
2019-04-27T12:00:13.011Z,1008.00
2019-04-27T12:01:13.026Z,1008.00
2019-04-27T12:02:13.043Z,1007.95
2019-04-27T12:03:13.047Z,1007.98
2019-04-27T12:04:13.072Z,1007.94
2019-04-27T12:05:13.184Z,1007.96